Airfield :
LOGIN :

Register | Disclaimer

   EN    FR    IT 

 










Legend :    VFR   Marginal VFR   IFR   Intensive IFR   Very Intensive IFR
Visi :
Ceiling :
>= 8 km
>= 3000ft
5 to 8 km
1000 to 3000 ft
1500m to 5 km
500 to 1000 ft
800 to 1500m
200 to 500 ft
< 800m
< 200 ft
Symbols :   Thunderstorms  Fog  Heavy snow  Heavy precipitations  Wind > 20 kt
SIGMETs :     Misc.  Thunderstorms  Icing  Turbulence  Mountain Waves  Volcanic Ashes






- Airport Elevation : 327 ft
- IATA code : BHX


EGBB - Birmingham

CURRENT METAR :
  • 132150Z 20004KT 160V230 CAVOK 09/07 Q1009

EXPIRED METARs :
  • 132120Z 19006KT CAVOK 09/07 Q1009
  • 132050Z 21005KT CAVOK 09/08 Q1008
  • 132020Z 20003KT CAVOK 09/07 Q1008
  • 131950Z 19004KT 160V230 CAVOK 10/07 Q1007
  • 131920Z 22004KT 170V250 CAVOK 10/07 Q1007
  • 131850Z 23005KT 190V270 CAVOK 11/07 Q1006

TAF TAF EGBB
Valid from the 13 at 18:00 until the 14 at 18:00 UTC


131700Z 1318/1418 24006KT 9999 FEW020
PROB30 1400/1408 4000 BR
PROB40
TEMPO 1409/1412 BKN012
BECMG 1412/1415 06010KT
TEMPO 1412/1418 8000 -RA BKN010
PROB30
TEMPO 1412/1418 4000 RA BKN008
ATIS : +44 121 780 0910



MET'MAP, your aeronautical weather chart ! - Copyright ORBIFLY December 2007 - Disclaimer

ORBIFLY MET'MAP TEAM :

Programming & Development : Alexandra Zaïnal
Concept & Development : Baudouin d'Aumeries
Co-Development & Prog : Marc-Olivier Méhu
Technical & hardware support : Manuel Goepfert

Contact : metmap@orbifly.com




SOURCES & CREDITS :

   NOAA